Time,TemperatureF,DewpointF,PressureIn,WindDirection,WindDirectionDegrees,WindSpeedMPH,WindSpeedGustMPH,Humidity,HourlyPrecipIn,Conditions,Clouds,dailyrainin,SolarRadiationWatts/m^2,SoftwareType,DateUTC
2014-01-09 00:02:00,28.9,14.7,30.52,SSW,210,0.0,-999.0,55,0.00,,,0.00,0,Wunderground v.1.15,2014-01-09 05:02:00,
2014-01-09 00:04:00,28.9,14.7,30.52,SSW,210,0.0,-999.0,55,0.00,,,0.00,0,Wunderground v.1.15,2014-01-09 05:04:00,
2014-01-09 00:10:00,28.8,14.6,30.52,SSW,210,0.0,-999.0,55,0.00,,,0.00,0,Wunderground v.1.15,2014-01-09 05:10:00,
2014-01-09 00:12:00,28.7,14.6,30.52,SSW,210,0.0,-999.0,55,0.00,,,0.00,0,Wunderground v.1.15,2014-01-09 05:12:00,
2014-01-09 00:14:00,28.7,14.6,30.52,SSW,210,0.0,-999.0,55,0.00,,,0.00,0,Wunderground v.1.15,2014-01-09 05:14:00,
2014-01-09 00:19:00,28.7,14.1,30.52,SSW,210,0.0,-999.0,54,0.00,,,0.00,0,Wunderground v.1.15,2014-01-09 05:19:00,
2014-01-09 00:25:00,28.7,14.1,30.52,SSW,210,0.0,-999.0,54,0.00,,,0.00,0,Wunderground v.1.15,2014-01-09 05:25:00,
2014-01-09 00:31:00,29.1,14.1,30.52,SSW,210,0.0,-999.0,53,0.00,,,0.00,0,Wunderground v.1.15,2014-01-09 05:31:00,
2014-01-09 00:38:00,29.3,14.3,30.52,SSW,210,0.0,-999.0,53,0.00,,,0.00,0,Wunderground v.1.15,2014-01-09 05:38:00,
2014-01-09 00:44:00,29.5,14.5,30.52,SSW,210,0.0,-999.0,53,0.00,,,0.00,0,Wunderground v.1.15,2014-01-09 05:44:00,
2014-01-09 00:49:00,29.7,14.2,30.52,SSW,210,0.0,-999.0,52,0.00,,,0.00,0,Wunderground v.1.15,2014-01-09 05:49:00,
2014-01-09 00:54:00,29.9,13.9,30.52,SSW,210,0.0,-999.0,51,0.00,,,0.00,0,Wunderground v.1.15,2014-01-09 05:54:00,
2014-01-09 01:00:00,30.1,14.1,30.52,SSW,210,0.0,-999.0,51,0.00,,,0.00,0,Wunderground v.1.15,2014-01-09 06:00:00,
2014-01-09 01:06:00,30.2,14.2,30.52,SSW,210,0.0,-999.0,51,0.00,,,0.00,0,Wunderground v.1.15,2014-01-09 06:06:00,
2014-01-09 01:12:00,30.2,14.2,30.51,SSW,210,0.0,-999.0,51,0.00,,,0.00,0,Wunderground v.1.15,2014-01-09 06:12:00,
2014-01-09 01:18:00,30.4,14.0,30.51,SSW,210,0.0,-999.0,50,0.00,,,0.00,0,Wunderground v.1.15,2014-01-09 06:18:00,
2014-01-09 01:24:00,30.2,13.8,30.51,SSW,210,0.0,-999.0,50,0.00,,,0.00,0,Wunderground v.1.15,2014-01-09 06:24:00,
2014-01-09 01:30:00,29.9,14.4,30.51,SSW,210,0.0,-999.0,52,0.00,,,0.00,0,Wunderground v.1.15,2014-01-09 06:30:00,
2014-01-09 01:36:00,29.5,14.5,30.51,SSW,210,0.0,-999.0,53,0.00,,,0.00,0,Wunderground v.1.15,2014-01-09 06:36:00,
2014-01-09 01:42:00,29.4,13.9,30.51,SSW,210,0.0,-999.0,52,0.00,,,0.00,0,Wunderground v.1.15,2014-01-09 06:42:00,
2014-01-09 01:48:00,29.1,14.1,30.51,SSW,210,0.0,-999.0,53,0.00,,,0.00,0,Wunderground v.1.15,2014-01-09 06:48:00,
2014-01-09 01:54:00,29.2,14.2,30.51,SSW,210,0.0,-999.0,53,0.00,,,0.00,0,Wunderground v.1.15,2014-01-09 06:54:00,
2014-01-09 02:00:00,28.9,13.9,30.52,SSW,210,0.0,-999.0,53,0.00,,,0.00,0,Wunderground v.1.15,2014-01-09 07:00:00,
2014-01-09 02:06:00,28.9,14.3,30.51,SSW,210,0.0,-999.0,54,0.00,,,0.00,0,Wunderground v.1.15,2014-01-09 07:06:00,
2014-01-09 02:12:00,28.8,13.8,30.51,SSW,210,0.0,-999.0,53,0.00,,,0.00,0,Wunderground v.1.15,2014-01-09 07:12:00,
2014-01-09 02:18:00,28.8,13.8,30.52,SSW,210,0.0,-999.0,53,0.00,,,0.00,0,Wunderground v.1.15,2014-01-09 07:18:00,
2014-01-09 02:24:00,28.7,13.7,30.51,SSW,210,0.0,-999.0,53,0.00,,,0.00,0,Wunderground v.1.15,2014-01-09 07:24:00,
2014-01-09 02:30:00,28.5,13.5,30.52,SSW,210,0.0,-999.0,53,0.00,,,0.00,0,Wunderground v.1.15,2014-01-09 07:30:00,
2014-01-09 02:36:00,28.1,13.1,30.52,SSW,210,0.0,-999.0,53,0.00,,,0.00,0,Wunderground v.1.15,2014-01-09 07:36:00,
2014-01-09 02:42:00,27.8,14.1,30.52,SSW,210,0.0,-999.0,56,0.00,,,0.00,0,Wunderground v.1.15,2014-01-09 07:42:00,
2014-01-09 02:48:00,27.7,14.0,30.52,SSW,210,0.0,-999.0,56,0.00,,,0.00,0,Wunderground v.1.15,2014-01-09 07:48:00,
2014-01-09 02:54:00,27.6,14.3,30.52,SSW,210,0.0,-999.0,57,0.00,,,0.00,0,Wunderground v.1.15,2014-01-09 07:54:00,
2014-01-09 03:00:00,27.7,14.4,30.52,SSW,210,0.0,-999.0,57,0.00,,,0.00,0,Wunderground v.1.15,2014-01-09 08:00:00,
2014-01-09 03:06:00,27.5,14.2,30.52,SSW,210,0.0,-999.0,57,0.00,,,0.00,0,Wunderground v.1.15,2014-01-09 08:06:00,
2014-01-09 03:12:00,27.8,14.5,30.52,SSW,210,0.0,-999.0,57,0.00,,,0.00,0,Wunderground v.1.15,2014-01-09 08:12:00,
2014-01-09 03:18:00,28.5,13.9,30.52,SSW,210,0.0,-999.0,54,0.00,,,0.00,0,Wunderground v.1.15,2014-01-09 08:18:00,
2014-01-09 03:24:00,28.8,13.8,30.52,SSW,210,0.0,-999.0,53,0.00,,,0.00,0,Wunderground v.1.15,2014-01-09 08:24:00,
2014-01-09 03:30:00,28.4,13.9,30.52,SSW,210,0.0,-999.0,54,0.00,,,0.00,0,Wunderground v.1.15,2014-01-09 08:30:00,
2014-01-09 03:36:00,28.3,13.8,30.51,SSW,210,0.0,-999.0,54,0.00,,,0.00,0,Wunderground v.1.15,2014-01-09 08:36:00,
2014-01-09 03:42:00,28.3,14.2,30.51,SSW,210,0.0,-999.0,55,0.00,,,0.00,0,Wunderground v.1.15,2014-01-09 08:42:00,
2014-01-09 03:48:00,28.0,15.1,30.51,SSW,210,0.0,-999.0,58,0.00,,,0.00,0,Wunderground v.1.15,2014-01-09 08:48:00,
2014-01-09 03:54:00,27.8,15.3,30.51,SSW,210,0.0,-999.0,59,0.00,,,0.00,0,Wunderground v.1.15,2014-01-09 08:54:00,
2014-01-09 04:00:00,27.7,15.6,30.51,SSW,210,0.0,-999.0,60,0.00,,,0.00,0,Wunderground v.1.15,2014-01-09 09:00:00,
2014-01-09 04:06:00,27.6,15.9,30.51,SSW,210,0.0,-999.0,61,0.00,,,0.00,0,Wunderground v.1.15,2014-01-09 09:06:00,
2014-01-09 04:12:00,27.5,16.2,30.51,SSW,210,0.0,-999.0,62,0.00,,,0.00,0,Wunderground v.1.15,2014-01-09 09:12:00,
2014-01-09 04:18:00,27.5,16.5,30.51,SSW,210,0.0,-999.0,63,0.00,,,0.00,0,Wunderground v.1.15,2014-01-09 09:18:00,
2014-01-09 04:24:00,27.4,15.7,30.51,SSW,210,0.0,-999.0,61,0.00,,,0.00,0,Wunderground v.1.15,2014-01-09 09:24:00,
2014-01-09 04:30:00,27.5,15.8,30.51,SSW,210,0.0,-999.0,61,0.00,,,0.00,0,Wunderground v.1.15,2014-01-09 09:30:00,
2014-01-09 04:36:00,27.6,17.4,30.51,SSW,210,0.0,-999.0,65,0.00,,,0.00,0,Wunderground v.1.15,2014-01-09 09:36:00,
2014-01-09 04:42:00,27.6,17.7,30.51,SSW,210,0.0,-999.0,66,0.00,,,0.00,0,Wunderground v.1.15,2014-01-09 09:42:00,
2014-01-09 04:47:00,27.6,17.4,30.51,SSW,210,0.0,-999.0,65,0.00,,,0.00,0,Wunderground v.1.15,2014-01-09 09:47:00,
2014-01-09 04:53:00,27.6,17.7,30.51,SSW,210,0.0,-999.0,66,0.00,,,0.00,0,Wunderground v.1.15,2014-01-09 09:53:00,
2014-01-09 05:00:00,27.5,17.6,30.51,SSW,210,0.0,-999.0,66,0.00,,,0.00,0,Wunderground v.1.15,2014-01-09 10:00:00,
2014-01-09 05:06:00,27.4,17.2,30.52,SSW,210,0.0,-999.0,65,0.00,,,0.00,0,Wunderground v.1.15,2014-01-09 10:06:00,
2014-01-09 05:12:00,27.3,17.1,30.51,SSW,210,0.0,-999.0,65,0.00,,,0.00,0,Wunderground v.1.15,2014-01-09 10:12:00,
2014-01-09 05:18:00,27.1,16.9,30.51,SSW,210,0.0,-999.0,65,0.00,,,0.00,0,Wunderground v.1.15,2014-01-09 10:18:00,
2014-01-09 05:23:00,27.0,17.1,30.51,SSW,210,0.0,-999.0,66,0.00,,,0.00,0,Wunderground v.1.15,2014-01-09 10:23:00,
2014-01-09 05:29:00,26.9,16.7,30.51,SSW,210,0.0,-999.0,65,0.00,,,0.00,0,Wunderground v.1.15,2014-01-09 10:29:00,
2014-01-09 05:35:00,26.9,16.7,30.51,SSW,210,0.0,-999.0,65,0.00,,,0.00,0,Wunderground v.1.15,2014-01-09 10:35:00,
2014-01-09 05:41:00,26.9,16.7,30.51,SSW,210,0.0,-999.0,65,0.00,,,0.00,0,Wunderground v.1.15,2014-01-09 10:41:00,
2014-01-09 05:48:00,26.9,17.4,30.51,SSW,210,0.0,-999.0,67,0.00,,,0.00,0,Wunderground v.1.15,2014-01-09 10:48:00,
2014-01-09 05:53:00,26.8,17.0,30.51,SSW,210,0.0,-999.0,66,0.00,,,0.00,0,Wunderground v.1.15,2014-01-09 10:53:00,
2014-01-09 05:59:00,26.7,16.5,30.51,SSW,210,0.0,-999.0,65,0.00,,,0.00,0,Wunderground v.1.15,2014-01-09 10:59:00,
2014-01-09 06:05:00,26.7,16.9,30.51,SSW,210,0.0,-999.0,66,0.00,,,0.00,0,Wunderground v.1.15,2014-01-09 11:05:00,
2014-01-09 06:10:00,26.6,16.8,30.51,SSW,210,0.0,-999.0,66,0.00,,,0.00,0,Wunderground v.1.15,2014-01-09 11:10:00,
2014-01-09 06:16:00,26.5,16.3,30.51,SSW,210,0.0,-999.0,65,0.00,,,0.00,0,Wunderground v.1.15,2014-01-09 11:16:00,
2014-01-09 06:22:00,26.3,16.5,30.51,SSW,210,0.0,-999.0,66,0.00,,,0.00,0,Wunderground v.1.15,2014-01-09 11:22:00,
2014-01-09 06:28:00,26.2,16.7,30.51,SSW,210,0.0,-999.0,67,0.00,,,0.00,0,Wunderground v.1.15,2014-01-09 11:28:00,
2014-01-09 06:34:00,26.1,17.0,30.51,SSW,210,0.0,-999.0,68,0.00,,,0.00,0,Wunderground v.1.15,2014-01-09 11:34:00,
2014-01-09 06:40:00,25.9,17.1,30.51,SSW,210,0.0,-999.0,69,0.00,,,0.00,0,Wunderground v.1.15,2014-01-09 11:40:00,
2014-01-09 06:46:00,25.7,16.9,30.51,SSW,210,0.0,-999.0,69,0.00,,,0.00,0,Wunderground v.1.15,2014-01-09 11:46:00,
2014-01-09 06:52:00,25.5,16.7,30.51,SSW,210,0.0,-999.0,69,0.00,,,0.00,0,Wunderground v.1.15,2014-01-09 11:52:00,
2014-01-09 06:58:00,25.3,17.2,30.52,SSW,210,0.0,-999.0,71,0.00,,,0.00,0,Wunderground v.1.15,2014-01-09 11:58:00,
2014-01-09 07:04:00,25.1,17.0,30.52,SSW,210,0.0,-999.0,71,0.00,,,0.00,0,Wunderground v.1.15,2014-01-09 12:04:00,
2014-01-09 07:10:00,24.9,17.1,30.52,SSW,210,0.0,-999.0,72,0.00,,,0.00,0,Wunderground v.1.15,2014-01-09 12:10:00,
2014-01-09 07:16:00,24.8,17.1,30.52,SSW,210,0.0,-999.0,72,0.00,,,0.00,0,Wunderground v.1.15,2014-01-09 12:16:00,
2014-01-09 07:22:00,24.7,17.3,30.52,SSW,210,0.0,-999.0,73,0.00,,,0.00,0,Wunderground v.1.15,2014-01-09 12:22:00,
2014-01-09 07:28:00,24.6,17.2,30.53,SSW,210,0.0,-999.0,73,0.00,,,0.00,0,Wunderground v.1.15,2014-01-09 12:28:00,
2014-01-09 07:34:00,24.5,17.1,30.53,SSW,210,0.0,-999.0,73,0.00,,,0.00,5,Wunderground v.1.15,2014-01-09 12:34:00,
2014-01-09 07:40:00,24.5,17.4,30.53,SSW,210,0.0,-999.0,74,0.00,,,0.00,9,Wunderground v.1.15,2014-01-09 12:40:00,
2014-01-09 07:46:00,24.4,17.3,30.53,SSW,210,0.0,-999.0,74,0.00,,,0.00,16,Wunderground v.1.15,2014-01-09 12:46:00,
2014-01-09 07:52:00,24.4,17.3,30.53,SSW,210,0.0,-999.0,74,0.00,,,0.00,26,Wunderground v.1.15,2014-01-09 12:52:00,
2014-01-09 07:58:00,24.4,17.6,30.54,SSW,210,0.0,-999.0,75,0.00,,,0.00,35,Wunderground v.1.15,2014-01-09 12:58:00,
2014-01-09 08:04:00,24.4,17.9,30.54,SSW,210,0.0,-999.0,76,0.00,,,0.00,42,Wunderground v.1.15,2014-01-09 13:04:00,
2014-01-09 08:10:00,24.5,18.3,30.54,SSW,210,0.0,-999.0,77,0.00,,,0.00,47,Wunderground v.1.15,2014-01-09 13:10:00,
2014-01-09 08:16:00,24.6,18.4,30.54,SSW,210,0.0,-999.0,77,0.00,,,0.00,51,Wunderground v.1.15,2014-01-09 13:16:00,
2014-01-09 08:22:00,24.8,18.3,30.54,SSW,210,0.0,-999.0,76,0.00,,,0.00,46,Wunderground v.1.15,2014-01-09 13:22:00,
2014-01-09 08:28:00,24.9,17.5,30.54,SSW,210,0.0,-999.0,73,0.00,,,0.00,54,Wunderground v.1.15,2014-01-09 13:28:00,
2014-01-09 08:34:00,25.2,17.1,30.54,SSW,210,0.0,-999.0,71,0.00,,,0.00,33,Wunderground v.1.15,2014-01-09 13:34:00,
2014-01-09 08:40:00,25.7,16.9,30.55,SSW,210,0.0,-999.0,69,0.00,,,0.00,98,Wunderground v.1.15,2014-01-09 13:40:00,
2014-01-09 08:46:00,26.2,16.7,30.55,SSW,210,0.0,-999.0,67,0.00,,,0.00,156,Wunderground v.1.15,2014-01-09 13:46:00,
2014-01-09 08:52:00,26.8,17.0,30.55,SSW,210,0.0,-999.0,66,0.00,,,0.00,100,Wunderground v.1.15,2014-01-09 13:52:00,
2014-01-09 08:58:00,27.4,17.5,30.55,SSW,210,0.0,-999.0,66,0.00,,,0.00,192,Wunderground v.1.15,2014-01-09 13:58:00,
2014-01-09 09:04:00,30.0,18.9,30.55,SSW,210,0.0,-999.0,63,0.00,,,0.00,74,Wunderground v.1.15,2014-01-09 14:04:00,
2014-01-09 09:10:00,30.6,18.7,30.55,SSW,210,0.0,-999.0,61,0.00,,,0.00,54,Wunderground v.1.15,2014-01-09 14:10:00,
2014-01-09 09:16:00,30.7,18.8,30.55,SSW,210,0.0,-999.0,61,0.00,,,0.00,60,Wunderground v.1.15,2014-01-09 14:16:00,
2014-01-09 09:22:00,30.9,18.6,30.56,SSW,210,0.0,-999.0,60,0.00,,,0.00,169,Wunderground v.1.15,2014-01-09 14:22:00,
2014-01-09 09:28:00,31.2,19.3,30.56,SSW,210,0.0,-999.0,61,0.00,,,0.00,137,Wunderground v.1.15,2014-01-09 14:28:00,
2014-01-09 09:34:00,31.5,20.0,30.56,SSW,210,0.0,-999.0,62,0.00,,,0.00,195,Wunderground v.1.15,2014-01-09 14:34:00,
2014-01-09 09:40:00,32.0,19.7,30.57,SSW,210,0.0,-999.0,60,0.00,,,0.00,292,Wunderground v.1.15,2014-01-09 14:40:00,
2014-01-09 09:46:00,34.4,20.3,30.57,SSW,210,0.0,-999.0,56,0.00,,,0.00,387,Wunderground v.1.15,2014-01-09 14:46:00,
2014-01-09 09:51:00,36.4,20.9,30.57,SSW,210,0.0,-999.0,53,0.00,,,0.00,478,Wunderground v.1.15,2014-01-09 14:51:00,
2014-01-09 09:57:00,37.3,20.3,30.57,SSW,210,0.0,-999.0,50,0.00,,,0.00,522,Wunderground v.1.15,2014-01-09 14:57:00,
2014-01-09 10:03:00,37.7,19.8,30.58,SSW,210,0.0,-999.0,48,0.00,,,0.00,455,Wunderground v.1.15,2014-01-09 15:03:00,
2014-01-09 10:10:00,39.1,20.5,30.57,SSW,210,0.0,-999.0,47,0.00,,,0.00,531,Wunderground v.1.15,2014-01-09 15:10:00,
2014-01-09 10:15:00,40.2,20.5,30.58,SSW,210,0.0,-999.0,45,0.00,,,0.00,503,Wunderground v.1.15,2014-01-09 15:15:00,
2014-01-09 10:21:00,41.0,20.7,30.58,SSW,210,0.0,-999.0,44,0.00,,,0.00,647,Wunderground v.1.15,2014-01-09 15:21:00,
2014-01-09 10:27:00,41.2,20.4,30.58,SSW,210,0.0,-999.0,43,0.00,,,0.00,621,Wunderground v.1.15,2014-01-09 15:27:00,
2014-01-09 10:33:00,41.8,20.4,30.58,SSW,210,0.0,-999.0,42,0.00,,,0.00,680,Wunderground v.1.15,2014-01-09 15:33:00,
2014-01-09 10:39:00,42.4,21.5,30.58,SSW,210,0.0,-999.0,43,0.00,,,0.00,573,Wunderground v.1.15,2014-01-09 15:39:00,
2014-01-09 10:45:00,43.2,21.1,30.58,SSW,210,0.0,-999.0,41,0.00,,,0.00,383,Wunderground v.1.15,2014-01-09 15:45:00,
2014-01-09 10:50:00,44.0,21.2,30.58,SSW,210,0.0,-999.0,40,0.00,,,0.00,508,Wunderground v.1.15,2014-01-09 15:50:00,
2014-01-09 10:57:00,44.8,21.3,30.58,SSW,210,0.0,-999.0,39,0.00,,,0.00,403,Wunderground v.1.15,2014-01-09 15:57:00,
2014-01-09 11:02:00,45.0,20.9,30.57,SSW,210,0.0,-999.0,38,0.00,,,0.00,541,Wunderground v.1.15,2014-01-09 16:02:00,
2014-01-09 11:08:00,45.0,21.5,30.57,SSW,210,0.0,-999.0,39,0.00,,,0.00,492,Wunderground v.1.15,2014-01-09 16:08:00,
2014-01-09 11:14:00,43.7,20.3,30.57,SSW,210,0.0,-999.0,39,0.00,,,0.00,388,Wunderground v.1.15,2014-01-09 16:14:00,
2014-01-09 11:20:00,43.8,19.8,30.57,SSW,209,0.0,-999.0,38,0.00,,,0.00,584,Wunderground v.1.15,2014-01-09 16:20:00,
2014-01-09 11:26:00,45.2,20.4,30.56,SSW,209,0.0,-999.0,37,0.00,,,0.00,671,Wunderground v.1.15,2014-01-09 16:26:00,
2014-01-09 11:33:00,45.9,21.1,30.56,SSW,209,0.0,-999.0,37,0.00,,,0.00,552,Wunderground v.1.15,2014-01-09 16:33:00,
2014-01-09 11:40:00,46.5,20.9,30.55,West,263,0.0,-999.0,36,0.00,,,0.00,594,Wunderground v.1.15,2014-01-09 16:40:00,
2014-01-09 11:50:00,46.0,19.2,30.55,West,263,0.0,-999.0,34,0.00,,,0.00,594,Wunderground v.1.15,2014-01-09 16:50:00,
2014-01-09 11:58:00,47.0,20.0,30.54,West,263,0.0,-999.0,34,0.00,,,0.00,519,Wunderground v.1.15,2014-01-09 16:58:00,
2014-01-09 12:06:00,46.8,20.6,30.53,West,263,0.0,-999.0,35,0.00,,,0.00,483,Wunderground v.1.15,2014-01-09 17:06:00,
2014-01-09 12:12:00,47.6,19.2,30.53,West,263,0.0,-999.0,32,0.00,,,0.00,454,Wunderground v.1.15,2014-01-09 17:12:00,
2014-01-09 12:18:00,47.6,18.4,30.53,West,263,0.0,-999.0,31,0.00,,,0.00,496,Wunderground v.1.15,2014-01-09 17:18:00,
2014-01-09 12:26:00,47.4,18.2,30.52,SW,229,1.0,-999.0,31,0.00,,,0.00,434,Wunderground v.1.15,2014-01-09 17:26:00,
2014-01-09 12:32:00,47.8,19.3,30.52,SW,232,1.0,-999.0,32,0.00,,,0.00,489,Wunderground v.1.15,2014-01-09 17:32:00,
2014-01-09 12:38:00,48.2,20.4,30.52,SW,232,1.0,-999.0,33,0.00,,,0.00,490,Wunderground v.1.15,2014-01-09 17:38:00,
2014-01-09 12:48:00,48.7,19.4,30.51,SW,231,0.0,-999.0,31,0.00,,,0.00,188,Wunderground v.1.15,2014-01-09 17:48:00,
2014-01-09 12:56:00,48.3,19.0,30.50,SW,231,0.0,-999.0,31,0.00,,,0.00,346,Wunderground v.1.15,2014-01-09 17:56:00,
2014-01-09 13:12:00,48.2,18.9,30.49,SW,231,0.0,-999.0,31,0.00,,,0.00,457,Wunderground v.1.15,2014-01-09 18:12:00,
2014-01-09 13:18:00,48.6,17.7,30.49,SW,231,0.0,-999.0,29,0.00,,,0.00,253,Wunderground v.1.15,2014-01-09 18:18:00,
2014-01-09 13:24:00,48.6,18.5,30.49,SW,231,0.0,-999.0,30,0.00,,,0.00,218,Wunderground v.1.15,2014-01-09 18:24:00,
2014-01-09 13:30:00,48.3,18.3,30.49,SW,231,0.0,-999.0,30,0.00,,,0.00,223,Wunderground v.1.15,2014-01-09 18:30:00,
2014-01-09 13:36:00,48.0,18.8,30.49,SW,229,0.0,-999.0,31,0.00,,,0.00,199,Wunderground v.1.15,2014-01-09 18:36:00,
2014-01-09 13:42:00,47.7,18.5,30.48,SSE,149,0.0,-999.0,31,0.00,,,0.00,232,Wunderground v.1.15,2014-01-09 18:42:00,
2014-01-09 13:48:00,47.8,17.8,30.48,ESE,103,0.0,-999.0,30,0.00,,,0.00,209,Wunderground v.1.15,2014-01-09 18:48:00,
2014-01-09 13:54:00,48.1,19.6,30.48,ESE,103,0.0,-999.0,32,0.00,,,0.00,206,Wunderground v.1.15,2014-01-09 18:54:00,
2014-01-09 14:00:00,47.8,20.1,30.48,ESE,103,0.0,-999.0,33,0.00,,,0.00,185,Wunderground v.1.15,2014-01-09 19:00:00,
2014-01-09 14:06:00,47.6,18.4,30.48,ESE,103,0.0,-999.0,31,0.00,,,0.00,169,Wunderground v.1.15,2014-01-09 19:06:00,
2014-01-09 14:14:00,47.8,18.6,30.48,ESE,103,0.0,-999.0,31,0.00,,,0.00,278,Wunderground v.1.15,2014-01-09 19:14:00,
2014-01-09 14:22:00,47.8,17.8,30.47,East,97,0.0,-999.0,30,0.00,,,0.00,193,Wunderground v.1.15,2014-01-09 19:22:00,
2014-01-09 14:28:00,47.7,18.5,30.47,East,97,0.0,-999.0,31,0.00,,,0.00,158,Wunderground v.1.15,2014-01-09 19:28:00,
2014-01-09 14:36:00,48.0,18.0,30.48,East,97,0.0,-999.0,30,0.00,,,0.00,334,Wunderground v.1.15,2014-01-09 19:36:00,
2014-01-09 14:42:00,48.3,19.0,30.48,East,97,0.0,-999.0,31,0.00,,,0.00,387,Wunderground v.1.15,2014-01-09 19:42:00,
2014-01-09 14:52:00,49.0,19.6,30.48,East,96,0.0,-999.0,31,0.00,,,0.00,322,Wunderground v.1.15,2014-01-09 19:52:00,
2014-01-09 15:00:00,49.0,19.6,30.48,East,96,0.0,-999.0,31,0.00,,,0.00,338,Wunderground v.1.15,2014-01-09 20:00:00,
2014-01-09 15:14:00,49.5,19.3,30.48,East,96,0.0,-999.0,30,0.00,,,0.00,287,Wunderground v.1.15,2014-01-09 20:14:00,
2014-01-09 15:20:00,49.3,19.1,30.48,ESE,105,0.0,-999.0,30,0.00,,,0.00,265,Wunderground v.1.15,2014-01-09 20:20:00,
2014-01-09 15:36:00,49.4,19.2,30.48,ESE,105,0.0,-999.0,30,0.00,,,0.00,207,Wunderground v.1.15,2014-01-09 20:36:00,
2014-01-09 15:42:00,49.4,19.2,30.48,ENE,66,0.0,-999.0,30,0.00,,,0.00,185,Wunderground v.1.15,2014-01-09 20:42:00,
2014-01-09 15:49:00,49.7,19.5,30.48,East,84,0.0,-999.0,30,0.00,,,0.00,155,Wunderground v.1.15,2014-01-09 20:49:00,
2014-01-09 16:02:00,49.2,19.0,30.48,NE,51,0.0,-999.0,30,0.00,,,0.00,105,Wunderground v.1.15,2014-01-09 21:02:00,
2014-01-09 16:08:00,49.4,19.2,30.48,East,86,0.0,-999.0,30,0.00,,,0.00,79,Wunderground v.1.15,2014-01-09 21:08:00,
2014-01-09 16:15:00,49.4,19.2,30.48,East,86,0.0,-999.0,30,0.00,,,0.00,69,Wunderground v.1.15,2014-01-09 21:15:00,
2014-01-09 16:20:00,49.4,20.0,30.48,East,98,0.0,-999.0,31,0.00,,,0.00,51,Wunderground v.1.15,2014-01-09 21:20:00,
2014-01-09 16:28:00,49.4,20.0,30.48,East,80,0.0,-999.0,31,0.00,,,0.00,35,Wunderground v.1.15,2014-01-09 21:28:00,
2014-01-09 16:38:00,48.9,18.8,30.48,East,80,0.0,-999.0,30,0.00,,,0.00,25,Wunderground v.1.15,2014-01-09 21:38:00,
2014-01-09 16:50:00,48.4,17.6,30.49,East,80,0.0,-999.0,29,0.00,,,0.00,21,Wunderground v.1.15,2014-01-09 21:50:00,
2014-01-09 16:58:00,47.9,17.9,30.49,East,80,0.0,-999.0,30,0.00,,,0.00,25,Wunderground v.1.15,2014-01-09 21:58:00,
2014-01-09 17:10:00,47.4,17.5,30.49,East,80,0.0,-999.0,30,0.00,,,0.00,9,Wunderground v.1.15,2014-01-09 22:10:00,
2014-01-09 17:16:00,47.0,17.9,30.49,East,80,0.0,-999.0,31,0.00,,,0.00,5,Wunderground v.1.15,2014-01-09 22:16:00,
2014-01-09 17:30:00,46.2,17.2,30.49,East,80,0.0,-999.0,31,0.00,,,0.00,0,Wunderground v.1.15,2014-01-09 22:30:00,
2014-01-09 17:36:00,45.7,17.5,30.49,East,80,0.0,-999.0,32,0.00,,,0.00,0,Wunderground v.1.15,2014-01-09 22:36:00,
2014-01-09 17:42:00,45.3,17.8,30.49,East,80,0.0,-999.0,33,0.00,,,0.00,0,Wunderground v.1.15,2014-01-09 22:42:00,
2014-01-09 17:48:00,45.1,17.7,30.49,East,80,0.0,-999.0,33,0.00,,,0.00,0,Wunderground v.1.15,2014-01-09 22:48:00,
2014-01-09 17:56:00,44.6,18.6,30.49,East,80,0.0,-999.0,35,0.00,,,0.00,0,Wunderground v.1.15,2014-01-09 22:56:00,
2014-01-09 18:08:00,43.3,17.4,30.50,East,80,0.0,-999.0,35,0.00,,,0.00,0,Wunderground v.1.15,2014-01-09 23:08:00,
2014-01-09 18:18:00,42.2,17.8,30.49,East,80,0.0,-999.0,37,0.00,,,0.00,0,Wunderground v.1.15,2014-01-09 23:18:00,
2014-01-09 18:30:00,41.3,17.6,30.49,East,80,0.0,-999.0,38,0.00,,,0.00,0,Wunderground v.1.15,2014-01-09 23:30:00,
2014-01-09 18:40:00,40.6,17.5,30.50,East,80,0.0,-999.0,39,0.00,,,0.00,0,Wunderground v.1.15,2014-01-09 23:40:00,
2014-01-09 19:22:00,40.6,19.3,30.50,East,80,0.0,-999.0,42,0.00,,,0.00,0,Wunderground v.1.15,2014-01-10 00:22:00,
2014-01-09 19:28:00,40.4,18.5,30.50,East,80,0.0,-999.0,41,0.00,,,0.00,0,Wunderground v.1.15,2014-01-10 00:28:00,
2014-01-09 19:34:00,40.7,19.4,30.50,East,80,0.0,-999.0,42,0.00,,,0.00,0,Wunderground v.1.15,2014-01-10 00:34:00,
2014-01-09 19:40:00,40.7,19.9,30.50,East,80,0.0,-999.0,43,0.00,,,0.00,0,Wunderground v.1.15,2014-01-10 00:40:00,
2014-01-09 19:45:00,40.4,19.6,30.50,East,80,0.0,-999.0,43,0.00,,,0.00,0,Wunderground v.1.15,2014-01-10 00:45:00,
2014-01-09 19:52:00,40.4,20.2,30.51,East,80,0.0,-999.0,44,0.00,,,0.00,0,Wunderground v.1.15,2014-01-10 00:52:00,
2014-01-09 19:57:00,40.1,19.9,30.51,East,80,0.0,-999.0,44,0.00,,,0.00,0,Wunderground v.1.15,2014-01-10 00:57:00,
2014-01-09 20:03:00,40.5,19.2,30.51,East,80,0.0,-999.0,42,0.00,,,0.00,0,Wunderground v.1.15,2014-01-10 01:03:00,
2014-01-09 20:09:00,40.9,21.2,30.52,East,80,0.0,-999.0,45,0.00,,,0.00,0,Wunderground v.1.15,2014-01-10 01:09:00,
2014-01-09 20:16:00,40.9,21.7,30.52,East,80,0.0,-999.0,46,0.00,,,0.00,0,Wunderground v.1.15,2014-01-10 01:16:00,
2014-01-09 20:22:00,40.8,22.1,30.52,East,80,0.0,-999.0,47,0.00,,,0.00,0,Wunderground v.1.15,2014-01-10 01:22:00,
2014-01-09 20:28:00,40.6,20.9,30.52,East,80,0.0,-999.0,45,0.00,,,0.00,0,Wunderground v.1.15,2014-01-10 01:28:00,
2014-01-09 20:34:00,40.3,20.6,30.52,East,80,0.0,-999.0,45,0.00,,,0.00,0,Wunderground v.1.15,2014-01-10 01:34:00,
2014-01-09 20:40:00,40.1,22.0,30.52,East,80,0.0,-999.0,48,0.00,,,0.00,0,Wunderground v.1.15,2014-01-10 01:40:00,
2014-01-09 20:45:00,40.1,22.9,30.52,East,80,0.0,-999.0,50,0.00,,,0.00,0,Wunderground v.1.15,2014-01-10 01:45:00,
2014-01-09 20:50:00,39.9,23.2,30.52,East,80,0.0,-999.0,51,0.00,,,0.00,0,Wunderground v.1.15,2014-01-10 01:50:00,
2014-01-09 20:56:00,39.8,22.2,30.52,East,80,0.0,-999.0,49,0.00,,,0.00,0,Wunderground v.1.15,2014-01-10 01:56:00,
2014-01-09 21:02:00,39.9,21.3,30.52,East,80,0.0,-999.0,47,0.00,,,0.00,0,Wunderground v.1.15,2014-01-10 02:02:00,
2014-01-09 21:08:00,40.3,20.6,30.51,East,80,0.0,-999.0,45,0.00,,,0.00,0,Wunderground v.1.15,2014-01-10 02:08:00,
2014-01-09 21:14:00,40.4,22.2,30.51,East,80,0.0,-999.0,48,0.00,,,0.00,0,Wunderground v.1.15,2014-01-10 02:14:00,
2014-01-09 21:20:00,40.5,22.3,30.51,East,80,0.0,-999.0,48,0.00,,,0.00,0,Wunderground v.1.15,2014-01-10 02:20:00,
2014-01-09 21:26:00,40.5,21.8,30.51,East,80,0.0,-999.0,47,0.00,,,0.00,0,Wunderground v.1.15,2014-01-10 02:26:00,
2014-01-09 21:32:00,40.5,22.3,30.51,East,80,0.0,-999.0,48,0.00,,,0.00,0,Wunderground v.1.15,2014-01-10 02:32:00,
2014-01-09 21:38:00,40.5,23.3,30.51,East,80,0.0,-999.0,50,0.00,,,0.00,0,Wunderground v.1.15,2014-01-10 02:38:00,
2014-01-09 21:44:00,40.4,23.2,30.51,East,80,0.0,-999.0,50,0.00,,,0.00,0,Wunderground v.1.15,2014-01-10 02:44:00,
2014-01-09 21:50:00,40.3,23.6,30.51,East,80,0.0,-999.0,51,0.00,,,0.00,0,Wunderground v.1.15,2014-01-10 02:50:00,
2014-01-09 21:56:00,40.2,23.5,30.50,East,80,0.0,-999.0,51,0.00,,,0.00,0,Wunderground v.1.15,2014-01-10 02:56:00,
2014-01-09 22:02:00,40.1,22.9,30.50,East,80,0.0,-999.0,50,0.00,,,0.00,0,Wunderground v.1.15,2014-01-10 03:02:00,
2014-01-09 22:08:00,40.1,23.9,30.50,East,80,0.0,-999.0,52,0.00,,,0.00,0,Wunderground v.1.15,2014-01-10 03:08:00,
2014-01-09 22:14:00,40.0,23.3,30.50,East,80,0.0,-999.0,51,0.00,,,0.00,0,Wunderground v.1.15,2014-01-10 03:14:00,
2014-01-09 22:20:00,40.0,23.3,30.50,East,80,0.0,-999.0,51,0.00,,,0.00,0,Wunderground v.1.15,2014-01-10 03:20:00,
2014-01-09 22:26:00,40.0,22.8,30.50,East,80,0.0,-999.0,50,0.00,,,0.00,0,Wunderground v.1.15,2014-01-10 03:26:00,
2014-01-09 22:32:00,40.0,23.8,30.50,East,80,0.0,-999.0,52,0.00,,,0.00,0,Wunderground v.1.15,2014-01-10 03:32:00,
2014-01-09 22:38:00,39.9,22.7,30.50,East,80,0.0,-999.0,50,0.00,,,0.00,0,Wunderground v.1.15,2014-01-10 03:38:00,
2014-01-09 22:44:00,39.9,22.7,30.50,East,80,0.0,-999.0,50,0.00,,,0.00,0,Wunderground v.1.15,2014-01-10 03:44:00,
2014-01-09 22:50:00,40.0,23.3,30.50,East,80,0.0,-999.0,51,0.00,,,0.00,0,Wunderground v.1.15,2014-01-10 03:50:00,
2014-01-09 22:56:00,40.1,24.8,30.50,East,80,0.0,-999.0,54,0.00,,,0.00,0,Wunderground v.1.15,2014-01-10 03:56:00,
2014-01-09 23:02:00,40.1,25.6,30.49,East,80,0.0,-999.0,56,0.00,,,0.00,0,Wunderground v.1.15,2014-01-10 04:02:00,
2014-01-09 23:08:00,40.1,22.9,30.48,East,80,0.0,-999.0,50,0.00,,,0.00,0,Wunderground v.1.15,2014-01-10 04:08:00,
2014-01-09 23:14:00,40.3,23.6,30.48,East,80,0.0,-999.0,51,0.00,,,0.00,0,Wunderground v.1.15,2014-01-10 04:14:00,
2014-01-09 23:20:00,40.4,25.1,30.49,East,80,0.0,-999.0,54,0.00,,,0.00,0,Wunderground v.1.15,2014-01-10 04:20:00,
2014-01-09 23:26:00,40.5,23.8,30.48,East,80,0.0,-999.0,51,0.00,,,0.00,0,Wunderground v.1.15,2014-01-10 04:26:00,
2014-01-09 23:32:00,40.5,22.8,30.48,East,80,0.0,-999.0,49,0.00,,,0.00,0,Wunderground v.1.15,2014-01-10 04:32:00,
2014-01-09 23:38:00,40.6,22.9,30.48,East,80,0.0,-999.0,49,0.00,,,0.00,0,Wunderground v.1.15,2014-01-10 04:38:00,
2014-01-09 23:44:00,40.7,24.0,30.48,East,80,0.0,-999.0,51,0.00,,,0.00,0,Wunderground v.1.15,2014-01-10 04:44:00,
2014-01-09 23:50:00,40.7,23.5,30.48,East,80,0.0,-999.0,50,0.00,,,0.00,0,Wunderground v.1.15,2014-01-10 04:50:00,
2014-01-09 23:56:00,40.8,23.6,30.47,East,80,0.0,-999.0,50,0.00,,,0.00,0,Wunderground v.1.15,2014-01-10 04:56:00,